createdAt,value
2023-05-14T00:00:23.881Z,10.6
2023-05-14T00:07:41.528Z,10.6
2023-05-14T00:11:20.391Z,10.6
2023-05-14T00:12:34.092Z,10.6
2023-05-14T00:18:38.981Z,10.6
2023-05-14T00:23:30.588Z,10.6
2023-05-14T00:33:14.525Z,10.4
2023-05-14T00:36:53.428Z,10.2
2023-05-14T00:40:33.148Z,10.3
2023-05-14T00:49:03.515Z,10.2
2023-05-14T00:53:55.560Z,10
2023-05-14T00:56:21.735Z,10
2023-05-14T01:00:00.745Z,10
2023-05-14T01:01:13.456Z,10
2023-05-14T01:04:52.589Z,9.9
2023-05-14T01:13:23.531Z,9.7
2023-05-14T01:19:28.828Z,9.6
2023-05-14T01:25:33.617Z,9.6
2023-05-14T01:35:17.737Z,9.6
2023-05-14T01:45:01.708Z,9.7
2023-05-14T02:02:03.464Z,9.2
2023-05-14T02:04:29.519Z,9.2
2023-05-14T02:10:34.642Z,8.9
2023-05-14T02:11:48.375Z,8.9
2023-05-14T02:13:00.476Z,8.9
2023-05-14T02:19:05.942Z,8.8
2023-05-14T02:20:18.687Z,8.7
2023-05-14T02:25:10.745Z,8.5
2023-05-14T02:28:49.452Z,8.6
2023-05-14T02:30:02.855Z,8.6
2023-05-14T02:37:20.493Z,8.4
2023-05-14T02:38:34.061Z,8.4
2023-05-14T03:05:20.122Z,8.3
2023-05-14T03:12:37.674Z,8.3
2023-05-14T03:17:29.646Z,8.1
2023-05-14T03:19:55.689Z,8.1
2023-05-14T03:22:21.477Z,8.2
2023-05-14T03:32:05.479Z,8.3
2023-05-14T03:39:23.566Z,8.3
2023-05-14T03:41:49.523Z,8.3
2023-05-14T03:50:21.638Z,8.1
2023-05-14T04:19:32.531Z,8.2
2023-05-14T04:21:58.733Z,8.2
2023-05-14T04:23:12.067Z,8.3
2023-05-14T04:28:03.483Z,8.8
2023-05-14T04:35:23.419Z,8.6
2023-05-14T04:36:34.573Z,8.7
2023-05-14T04:39:00.603Z,8.8
2023-05-14T04:52:23.899Z,9.1
2023-05-14T04:57:15.444Z,9.3
2023-05-14T05:09:25.711Z,10.2
2023-05-14T05:10:38.737Z,10.3
2023-05-14T05:11:51.820Z,10.2
2023-05-14T05:13:05.084Z,10.4
2023-05-14T05:14:17.711Z,10.6
2023-05-14T05:15:30.677Z,10.6
2023-05-14T05:16:43.720Z,10.6
2023-05-14T05:17:56.751Z,10.7
2023-05-14T05:19:10.304Z,10.7
2023-05-14T05:20:22.910Z,10.7
2023-05-14T05:21:36.111Z,10.7
2023-05-14T05:22:48.910Z,10.8
2023-05-14T05:24:01.587Z,10.8
2023-05-14T05:25:14.758Z,10.8
2023-05-14T05:26:27.810Z,10.8
2023-05-14T05:27:41.052Z,10.8
2023-05-14T05:28:53.765Z,10.8
2023-05-14T05:30:06.731Z,10.8
2023-05-14T05:31:20.001Z,10.8
2023-05-14T05:32:32.599Z,10.7
2023-05-14T05:33:45.926Z,10.7
2023-05-14T05:34:58.643Z,10.7
2023-05-14T05:36:11.752Z,10.7
2023-05-14T05:37:24.733Z,10.7
2023-05-14T05:38:37.702Z,10.7
2023-05-14T05:39:50.902Z,10.7
2023-05-14T05:41:03.575Z,10.7
2023-05-14T05:42:16.711Z,10.7
2023-05-14T05:43:29.744Z,10.7
2023-05-14T05:44:42.737Z,10.8
2023-05-14T05:45:55.973Z,10.8
2023-05-14T05:47:08.770Z,11
2023-05-14T05:48:21.730Z,11
2023-05-14T05:49:34.811Z,11.1
2023-05-14T05:50:47.700Z,11.2
2023-05-14T05:52:00.922Z,11.3
2023-05-14T05:53:13.744Z,11.3
2023-05-14T05:54:26.727Z,11.5
2023-05-14T05:55:39.723Z,11.6
2023-05-14T05:56:52.735Z,11.7
2023-05-14T05:58:05.734Z,11.7
2023-05-14T05:59:18.732Z,11.9
2023-05-14T06:00:31.714Z,11.9
2023-05-14T06:01:45.278Z,12.1
2023-05-14T06:02:57.778Z,12.2
2023-05-14T06:04:10.702Z,12.2
2023-05-14T06:05:23.757Z,12.4
2023-05-14T06:06:36.740Z,12.7
2023-05-14T06:07:49.583Z,12.7
2023-05-14T06:09:02.764Z,12.8
2023-05-14T06:10:15.812Z,12.9
2023-05-14T06:11:28.719Z,13
2023-05-14T06:12:41.909Z,13.1
2023-05-14T06:13:54.847Z,13.2
2023-05-14T06:15:07.777Z,13.3
2023-05-14T06:16:21.195Z,13.4
2023-05-14T06:17:33.766Z,13.5
2023-05-14T06:18:46.822Z,13.6
2023-05-14T06:19:59.926Z,13.6
2023-05-14T06:21:12.944Z,13.8
2023-05-14T06:22:25.713Z,13.8
2023-05-14T06:23:38.780Z,13.9
2023-05-14T06:24:51.770Z,13.9
2023-05-14T06:26:04.606Z,14
2023-05-14T06:27:17.794Z,14.2
2023-05-14T06:28:30.766Z,14.2
2023-05-14T06:29:43.746Z,14.3
2023-05-14T06:30:56.692Z,14.4
2023-05-14T06:32:09.757Z,14.5
2023-05-14T06:33:22.604Z,14.6
2023-05-14T06:34:35.757Z,14.6
2023-05-14T06:35:48.757Z,14.6
2023-05-14T06:37:01.753Z,14.7
2023-05-14T06:38:14.740Z,14.7
2023-05-14T06:39:27.770Z,14.9
2023-05-14T06:40:40.613Z,14.9
2023-05-14T06:41:53.874Z,14.9
2023-05-14T06:43:06.840Z,14.9
2023-05-14T06:44:19.964Z,14.9
2023-05-14T06:45:33.244Z,14.9
2023-05-14T06:46:45.906Z,14.9
2023-05-14T06:47:58.922Z,14.9
2023-05-14T06:49:11.762Z,15.1
2023-05-14T06:50:24.972Z,15.2
2023-05-14T06:51:37.846Z,15.3
2023-05-14T06:52:50.856Z,15.4
2023-05-14T06:54:03.776Z,15.5
2023-05-14T06:55:16.771Z,15.7
2023-05-14T06:56:29.887Z,15.8
2023-05-14T06:57:42.582Z,15.9
2023-05-14T06:58:55.908Z,16
2023-05-14T07:00:08.710Z,16.2
2023-05-14T07:01:21.782Z,16.3
2023-05-14T07:02:35.304Z,16.5
2023-05-14T07:03:47.764Z,16.4
2023-05-14T07:05:00.863Z,16.6
2023-05-14T07:06:13.784Z,16.8
2023-05-14T07:07:27.092Z,16.8
2023-05-14T07:08:39.733Z,17.1
2023-05-14T07:09:52.903Z,17.2
2023-05-14T07:11:05.707Z,17.3
2023-05-14T07:12:18.902Z,17.4
2023-05-14T07:13:31.718Z,17.6
2023-05-14T07:14:44.643Z,17.8
2023-05-14T07:15:57.573Z,17.8
2023-05-14T07:17:10.798Z,17.9
2023-05-14T07:18:23.819Z,18.1
2023-05-14T07:19:36.771Z,18.3
2023-05-14T07:20:49.719Z,18.2
2023-05-14T07:22:02.651Z,18.4
2023-05-14T07:23:16.240Z,18.5
2023-05-14T07:24:28.789Z,18.6
2023-05-14T07:25:41.747Z,18.8
2023-05-14T07:26:54.665Z,18.9
2023-05-14T07:28:07.782Z,18.9
2023-05-14T07:29:20.793Z,19.1
2023-05-14T07:30:33.676Z,19.1
2023-05-14T07:31:46.832Z,19.3
2023-05-14T07:32:59.846Z,19.3
2023-05-14T07:34:12.778Z,19.4
2023-05-14T07:35:25.708Z,19.4
2023-05-14T07:36:38.717Z,19.6
2023-05-14T07:37:51.677Z,19.7
2023-05-14T07:39:04.562Z,19.7
2023-05-14T07:40:17.589Z,19.9
2023-05-14T07:41:30.691Z,20
2023-05-14T07:42:43.690Z,20.1
2023-05-14T07:43:56.688Z,20.1
2023-05-14T07:45:09.676Z,20.3
2023-05-14T07:46:22.897Z,20.4
2023-05-14T07:47:35.767Z,20.4
2023-05-14T07:48:48.356Z,20.4
2023-05-14T07:50:01.833Z,20.5
2023-05-14T07:51:14.681Z,20.6
2023-05-14T07:52:27.749Z,20.6
2023-05-14T07:53:40.662Z,20.7
2023-05-14T07:54:53.716Z,20.8
2023-05-14T07:56:06.803Z,20.7
2023-05-14T07:57:19.676Z,20.9
2023-05-14T07:58:32.862Z,20.9
2023-05-14T07:59:45.566Z,20.9
2023-05-14T08:00:58.724Z,20.9
2023-05-14T08:02:11.765Z,20.9
2023-05-14T08:03:24.831Z,21.2
2023-05-14T08:04:37.756Z,21.1
2023-05-14T08:05:50.656Z,21.2
2023-05-14T08:07:03.556Z,21.3
2023-05-14T08:08:16.731Z,21.3
2023-05-14T08:09:29.718Z,21.3
2023-05-14T08:10:42.717Z,21.3
2023-05-14T08:11:55.716Z,21.3
2023-05-14T08:13:08.714Z,21.4
2023-05-14T08:14:22.054Z,21.4
2023-05-14T08:15:34.700Z,21.4
2023-05-14T08:16:47.711Z,21.6
2023-05-14T08:18:00.712Z,21.7
2023-05-14T08:19:13.841Z,21.9
2023-05-14T08:20:27.348Z,22.1
2023-05-14T08:21:39.784Z,22.2
2023-05-14T08:22:52.641Z,22.3
2023-05-14T08:24:05.649Z,22.3
2023-05-14T08:26:31.649Z,22.3
2023-05-14T08:27:44.690Z,22.3
2023-05-14T08:28:57.650Z,22.3
2023-05-14T08:30:10.839Z,22.5
2023-05-14T08:31:23.786Z,22.6
2023-05-14T08:32:36.893Z,22.7
2023-05-14T08:33:49.681Z,22.7
2023-05-14T08:35:02.644Z,22.7
2023-05-14T08:36:15.759Z,22.7
2023-05-14T08:37:28.686Z,22.7
2023-05-14T08:38:41.686Z,22.8
2023-05-14T08:39:54.684Z,22.7
2023-05-14T08:41:07.704Z,22.7
2023-05-14T08:42:20.700Z,22.8
2023-05-14T08:43:33.727Z,22.8
2023-05-14T08:44:46.665Z,23.1
2023-05-14T08:45:59.659Z,23.1
2023-05-14T08:47:12.870Z,23.3
2023-05-14T08:48:25.623Z,23.4
2023-05-14T08:49:38.700Z,23.4
2023-05-14T08:50:51.638Z,23.6
2023-05-14T08:52:04.726Z,23.6
2023-05-14T08:53:17.652Z,23.8
2023-05-14T08:54:30.511Z,23.9
2023-05-14T08:55:43.553Z,23.7
2023-05-14T08:56:56.696Z,23.7
2023-05-14T08:58:09.571Z,23.7
2023-05-14T08:59:22.878Z,23.7
2023-05-14T09:00:35.546Z,23.8
2023-05-14T09:01:48.765Z,23.9
2023-05-14T09:03:01.693Z,23.8
2023-05-14T09:04:14.689Z,23.6
2023-05-14T09:05:27.531Z,23.6
2023-05-14T09:06:40.676Z,23.3
2023-05-14T09:07:53.670Z,23.3
2023-05-14T09:09:06.697Z,23.6
2023-05-14T09:10:19.666Z,23.6
2023-05-14T09:11:32.504Z,23.7
2023-05-14T09:12:45.652Z,23.7
2023-05-14T09:13:58.634Z,23.8
2023-05-14T09:15:11.855Z,23.9
2023-05-14T09:16:25.227Z,23.9
2023-05-14T09:17:37.664Z,24
2023-05-14T09:18:50.571Z,24.1
2023-05-14T09:20:03.554Z,24.1
2023-05-14T09:21:16.666Z,24.1
2023-05-14T09:22:29.670Z,24.1
2023-05-14T09:23:42.623Z,24
2023-05-14T09:24:55.523Z,23.9
2023-05-14T09:26:08.998Z,23.8
2023-05-14T09:27:21.557Z,23.7
2023-05-14T09:28:34.792Z,23.7
2023-05-14T09:29:47.660Z,23.7
2023-05-14T09:31:00.524Z,23.7
2023-05-14T09:32:13.451Z,23.6
2023-05-14T09:33:26.746Z,23.6
2023-05-14T09:34:39.653Z,23.6
2023-05-14T09:35:52.661Z,23.6
2023-05-14T09:37:05.660Z,23.4
2023-05-14T09:38:18.524Z,23.3
2023-05-14T09:39:31.619Z,23.3
2023-05-14T09:40:44.695Z,23.3
2023-05-14T09:41:57.765Z,23.3
2023-05-14T09:43:10.620Z,23.3
2023-05-14T09:44:23.700Z,23.3
2023-05-14T09:45:36.631Z,23.3
2023-05-14T09:46:49.635Z,23.2
2023-05-14T09:48:02.744Z,23.1
2023-05-14T09:49:15.941Z,22.9
2023-05-14T09:50:28.647Z,23.1
2023-05-14T09:51:41.486Z,23.1
2023-05-14T09:52:54.653Z,22.8
2023-05-14T09:54:07.508Z,22.8
2023-05-14T09:55:20.668Z,22.7
2023-05-14T09:56:33.657Z,22.6
2023-05-14T09:57:46.678Z,22.4
2023-05-14T09:58:59.749Z,22.2
2023-05-14T10:00:12.471Z,22.1
2023-05-14T10:01:25.486Z,22.1
2023-05-14T10:02:38.890Z,22.1
2023-05-14T10:03:51.492Z,22.1
2023-05-14T10:05:04.630Z,22
2023-05-14T10:06:17.987Z,21.9
2023-05-14T10:07:30.678Z,21.9
2023-05-14T10:08:43.629Z,22
2023-05-14T10:09:57.656Z,21.9
2023-05-14T10:11:09.612Z,21.8
2023-05-14T10:12:22.500Z,21.8
2023-05-14T10:13:35.611Z,21.8
2023-05-14T10:14:48.588Z,21.8
2023-05-14T10:16:01.576Z,21.8
2023-05-14T10:17:14.762Z,21.8
2023-05-14T10:18:27.615Z,21.8
2023-05-14T10:19:40.606Z,21.8
2023-05-14T10:20:53.684Z,21.8
2023-05-14T10:22:06.709Z,21.8
2023-05-14T10:23:19.921Z,21.8
2023-05-14T10:24:32.820Z,21.7
2023-05-14T10:25:45.623Z,21.6
2023-05-14T10:26:58.777Z,21.6
2023-05-14T10:28:11.610Z,21.4
2023-05-14T10:29:24.614Z,21.4
2023-05-14T10:30:37.607Z,21.3
2023-05-14T10:31:50.694Z,21.3
2023-05-14T10:33:03.613Z,21.2
2023-05-14T10:34:16.593Z,21.1
2023-05-14T10:35:29.633Z,21.1
2023-05-14T10:36:42.678Z,21.1
2023-05-14T10:37:55.511Z,20.9
2023-05-14T10:39:08.777Z,20.9
2023-05-14T10:40:21.628Z,20.9
2023-05-14T10:41:34.483Z,21.2
2023-05-14T10:42:48.107Z,21.1
2023-05-14T10:44:01.266Z,21.1
2023-05-14T10:45:14.078Z,21.3
2023-05-14T10:46:27.113Z,21.3
2023-05-14T10:47:40.156Z,21.5
2023-05-14T10:48:53.081Z,21.4
2023-05-14T10:51:19.213Z,21.4
2023-05-14T10:52:32.119Z,21.4
2023-05-14T10:53:45.133Z,21.6
2023-05-14T10:54:58.501Z,21.6
2023-05-14T10:56:11.108Z,21.6
2023-05-14T10:57:24.244Z,21.6
2023-05-14T10:58:37.063Z,21.6
2023-05-14T10:59:49.950Z,21.6
2023-05-14T11:01:02.813Z,21.6
2023-05-14T11:02:16.153Z,21.6
2023-05-14T11:03:29.110Z,21.8
2023-05-14T11:04:42.088Z,21.8
2023-05-14T11:05:55.087Z,21.8
2023-05-14T11:07:08.105Z,21.8
2023-05-14T11:08:22.490Z,21.8
2023-05-14T11:09:34.089Z,21.8
2023-05-14T11:10:47.093Z,21.8
2023-05-14T11:12:00.088Z,21.8
2023-05-14T11:13:13.070Z,22
2023-05-14T11:14:26.135Z,22
2023-05-14T11:15:39.085Z,22
2023-05-14T11:16:52.215Z,22
2023-05-14T11:18:05.143Z,22
2023-05-14T11:19:18.039Z,22
2023-05-14T11:20:31.096Z,22
2023-05-14T11:21:44.321Z,22
2023-05-14T11:22:56.989Z,22.2
2023-05-14T11:24:10.406Z,22
2023-05-14T11:25:23.096Z,22
2023-05-14T11:26:36.263Z,22
2023-05-14T11:27:49.197Z,22
2023-05-14T11:29:02.089Z,22
2023-05-14T11:30:15.094Z,22
2023-05-14T11:31:28.115Z,22
2023-05-14T11:32:41.289Z,22
2023-05-14T11:33:54.236Z,21.8
2023-05-14T11:35:07.489Z,21.8
2023-05-14T11:36:20.379Z,21.9
2023-05-14T11:37:33.086Z,22
2023-05-14T11:38:46.255Z,22
2023-05-14T11:39:59.103Z,22
2023-05-14T11:41:12.070Z,22
2023-05-14T11:42:25.109Z,22
2023-05-14T11:43:38.098Z,22
2023-05-14T11:44:51.078Z,22
2023-05-14T11:46:04.117Z,22
2023-05-14T11:47:17.093Z,22
2023-05-14T11:48:30.084Z,22
2023-05-14T11:49:43.096Z,22
2023-05-14T11:50:56.080Z,22
2023-05-14T11:52:09.182Z,22
2023-05-14T11:53:22.157Z,22
2023-05-14T11:54:35.086Z,22
2023-05-14T11:55:48.078Z,22
2023-05-14T11:57:01.194Z,22.2
2023-05-14T11:58:14.069Z,22.1
2023-05-14T11:59:27.216Z,22.1
2023-05-14T12:01:53.064Z,22.1
2023-05-14T12:05:32.063Z,22
2023-05-14T12:06:45.175Z,22
2023-05-14T12:07:58.156Z,22
2023-05-14T12:09:11.012Z,22
2023-05-14T12:10:24.255Z,22
2023-05-14T12:11:37.100Z,22
2023-05-14T12:12:50.105Z,22
2023-05-14T12:14:03.059Z,22
2023-05-14T12:15:16.126Z,22
2023-05-14T12:16:29.096Z,22
2023-05-14T12:17:42.086Z,22
2023-05-14T12:18:55.110Z,22
2023-05-14T12:20:08.118Z,22
2023-05-14T12:21:21.089Z,21.9
2023-05-14T12:22:35.728Z,21.8
2023-05-14T12:23:47.213Z,21.8
2023-05-14T12:25:00.126Z,21.9
2023-05-14T12:26:13.043Z,22
2023-05-14T12:27:26.036Z,22
2023-05-14T12:28:38.965Z,21.8
2023-05-14T12:29:52.253Z,21.8
2023-05-14T12:31:05.174Z,21.7
2023-05-14T12:32:17.788Z,21.6
2023-05-14T12:33:30.953Z,21.6
2023-05-14T12:34:44.077Z,21.6
2023-05-14T12:35:57.748Z,21.4
2023-05-14T12:37:10.071Z,21.4
2023-05-14T12:38:23.043Z,21.4
2023-05-14T12:39:36.079Z,21.4
2023-05-14T12:40:49.113Z,21.4
2023-05-14T12:42:02.092Z,21.6
2023-05-14T12:43:14.952Z,21.6
2023-05-14T12:44:28.232Z,21.6
2023-05-14T12:45:40.971Z,21.6
2023-05-14T12:46:54.131Z,21.6
2023-05-14T12:48:06.844Z,21.6
2023-05-14T12:49:20.072Z,21.4
2023-05-14T12:50:33.022Z,21.6
2023-05-14T12:51:46.082Z,21.6
2023-05-14T12:52:59.018Z,21.6
2023-05-14T12:54:12.138Z,21.6
2023-05-14T12:55:25.025Z,21.6
2023-05-14T12:56:38.548Z,21.6
2023-05-14T12:57:51.161Z,21.6
2023-05-14T12:59:04.054Z,21.8
2023-05-14T13:00:17.259Z,21.8
2023-05-14T13:01:30.105Z,21.8
2023-05-14T13:02:43.802Z,21.8
2023-05-14T13:03:56.108Z,21.8
2023-05-14T13:05:09.059Z,21.8
2023-05-14T13:06:22.443Z,21.8
2023-05-14T13:07:35.132Z,21.8
2023-05-14T13:08:48.108Z,21.8
2023-05-14T13:10:01.133Z,21.7
2023-05-14T13:11:14.069Z,21.6
2023-05-14T13:12:27.009Z,21.6
2023-05-14T13:13:40.059Z,21.6
2023-05-14T13:14:53.051Z,21.6
2023-05-14T13:16:05.753Z,21.6
2023-05-14T13:17:19.092Z,21.6
2023-05-14T13:18:32.113Z,21.6
2023-05-14T13:19:45.053Z,21.6
2023-05-14T13:20:58.041Z,21.6
2023-05-14T13:22:11.068Z,21.8
2023-05-14T13:23:24.164Z,21.8
2023-05-14T13:24:36.943Z,21.8
2023-05-14T13:25:50.179Z,21.8
2023-05-14T13:27:03.117Z,21.8
2023-05-14T13:28:16.088Z,21.8
2023-05-14T13:29:29.051Z,21.8
2023-05-14T13:30:42.106Z,21.9
2023-05-14T13:31:55.081Z,22
2023-05-14T13:33:08.130Z,22
2023-05-14T13:34:21.060Z,22
2023-05-14T13:36:47.093Z,22.1
2023-05-14T13:38:00.082Z,22.1
2023-05-14T13:39:14.397Z,22.1
2023-05-14T13:40:26.075Z,22.1
2023-05-14T13:41:39.037Z,22.1
2023-05-14T13:44:05.450Z,22.3
2023-05-14T13:45:18.083Z,22.3
2023-05-14T13:46:31.240Z,22.3
2023-05-14T13:47:43.983Z,22.3
2023-05-14T13:48:57.140Z,22.3
2023-05-14T13:50:09.803Z,22.3
2023-05-14T13:51:22.934Z,22.3
2023-05-14T13:52:35.837Z,22.4
2023-05-14T13:53:49.021Z,22.5
2023-05-14T13:55:02.033Z,22.5
2023-05-14T13:56:15.157Z,22.5
2023-05-14T13:57:28.294Z,22.5
2023-05-14T13:58:41.677Z,22.3
2023-05-14T13:59:54.021Z,22.3
2023-05-14T14:01:07.773Z,22.3
2023-05-14T14:02:20.053Z,22.3
2023-05-14T14:03:33.004Z,22.3
2023-05-14T14:07:12.028Z,22.3
2023-05-14T14:08:25.094Z,22.3
2023-05-14T14:09:38.255Z,22.3
2023-05-14T14:10:51.064Z,22.3
2023-05-14T14:12:04.071Z,22.3
2023-05-14T14:13:17.030Z,22.2
2023-05-14T14:14:30.023Z,22.1
2023-05-14T14:15:43.099Z,22.1
2023-05-14T14:16:56.061Z,22.1
2023-05-14T14:18:09.055Z,22.1
2023-05-14T14:19:22.706Z,22.1
2023-05-14T14:20:35.099Z,22.1
2023-05-14T14:21:48.038Z,22
2023-05-14T14:23:01.024Z,22
2023-05-14T14:24:13.859Z,22
2023-05-14T14:25:26.970Z,21.9
2023-05-14T14:26:40.403Z,21.8
2023-05-14T14:29:06.040Z,21.8
2023-05-14T14:30:19.056Z,21.8
2023-05-14T14:32:45.335Z,21.8
2023-05-14T14:33:57.883Z,21.8
2023-05-14T14:35:11.042Z,21.8
2023-05-14T14:36:24.058Z,21.8
2023-05-14T14:37:37.077Z,21.8
2023-05-14T14:38:50.025Z,21.8
2023-05-14T14:40:02.982Z,21.8
2023-05-14T14:41:16.366Z,21.8
2023-05-14T14:42:29.187Z,21.8
2023-05-14T14:43:42.044Z,21.8
2023-05-14T14:44:55.038Z,21.8
2023-05-14T14:46:08.138Z,21.8
2023-05-14T14:47:21.111Z,21.8
2023-05-14T14:48:34.111Z,21.8
2023-05-14T14:49:47.051Z,21.8
2023-05-14T14:51:00.029Z,21.8
2023-05-14T14:52:13.237Z,21.9
2023-05-14T14:53:26.042Z,22
2023-05-14T14:54:39.067Z,22
2023-05-14T14:55:52.005Z,22
2023-05-14T14:57:04.962Z,21.9
2023-05-14T14:58:18.082Z,22
2023-05-14T14:59:31.206Z,22
2023-05-14T15:00:44.033Z,22
2023-05-14T15:01:57.364Z,22
2023-05-14T15:03:10.098Z,22
2023-05-14T15:04:23.074Z,22
2023-05-14T15:05:36.024Z,22
2023-05-14T15:06:48.903Z,22
2023-05-14T15:08:01.908Z,22
2023-05-14T15:09:15.018Z,22
2023-05-14T15:10:28.003Z,22
2023-05-14T15:11:41.486Z,22
2023-05-14T15:12:54.129Z,22
2023-05-14T15:14:07.015Z,22
2023-05-14T15:15:20.073Z,22.1
2023-05-14T15:16:33.027Z,22.1
2023-05-14T15:17:46.105Z,22.1
2023-05-14T15:18:58.810Z,22.1
2023-05-14T15:20:12.016Z,22
2023-05-14T15:22:38.098Z,22
2023-05-14T15:23:51.010Z,22
2023-05-14T15:25:04.763Z,22
2023-05-14T15:26:17.021Z,22
2023-05-14T15:27:30.003Z,22
2023-05-14T15:28:43.017Z,21.8
2023-05-14T15:29:55.896Z,21.8
2023-05-14T15:31:09.046Z,21.8
2023-05-14T15:32:22.019Z,21.8
2023-05-14T15:33:35.015Z,21.8
2023-05-14T15:34:48.012Z,21.8
2023-05-14T15:36:01.010Z,21.8
2023-05-14T15:37:13.783Z,21.8
2023-05-14T15:38:27.053Z,21.8
2023-05-14T15:39:40.010Z,21.6
2023-05-14T15:40:52.996Z,21.6
2023-05-14T15:42:06.123Z,21.6
2023-05-14T15:43:19.375Z,21.6
2023-05-14T15:44:32.045Z,21.6
2023-05-14T15:45:45.021Z,21.6
2023-05-14T15:46:58.024Z,21.6
2023-05-14T15:48:11.027Z,21.6
2023-05-14T15:49:24.048Z,21.6
2023-05-14T15:50:37.041Z,21.6
2023-05-14T15:51:50.108Z,21.6
2023-05-14T15:53:02.996Z,21.6
2023-05-14T15:54:16.024Z,21.6
2023-05-14T15:55:29.038Z,21.6
2023-05-14T15:56:42.022Z,21.6
2023-05-14T15:57:55.048Z,21.6
2023-05-14T15:59:08.008Z,21.6
2023-05-14T16:00:21.081Z,21.6
2023-05-14T16:01:34.045Z,21.4
2023-05-14T16:02:47.072Z,21.4
2023-05-14T16:04:00.029Z,21.4
2023-05-14T16:05:12.993Z,21.4
2023-05-14T16:06:26.002Z,21.4
2023-05-14T16:07:39.015Z,21.4
2023-05-14T16:08:51.986Z,21.4
2023-05-14T16:10:05.296Z,21.4
2023-05-14T16:11:18.089Z,21.4
2023-05-14T16:12:31.084Z,21.5
2023-05-14T16:13:44.564Z,21.3
2023-05-14T16:14:56.998Z,21.3
2023-05-14T16:17:23.044Z,21.3
2023-05-14T16:18:36.074Z,21.3
2023-05-14T16:19:49.236Z,21.3
2023-05-14T16:21:02.111Z,21.3
2023-05-14T16:22:15.016Z,21.3
2023-05-14T16:23:28.065Z,21.3
2023-05-14T16:24:40.994Z,21.2
2023-05-14T16:25:53.866Z,21.1
2023-05-14T16:27:07.067Z,21.1
2023-05-14T16:28:19.845Z,21.1
2023-05-14T16:29:32.929Z,21.1
2023-05-14T16:30:45.943Z,21.1
2023-05-14T16:31:59.016Z,21.1
2023-05-14T16:33:11.879Z,21.1
2023-05-14T16:34:25.050Z,21.1
2023-05-14T16:35:38.034Z,21.1
2023-05-14T16:36:51.051Z,21.2
2023-05-14T16:38:04.016Z,21.2
2023-05-14T16:39:16.998Z,21.2
2023-05-14T16:40:30.066Z,21.1
2023-05-14T16:41:42.995Z,20.9
2023-05-14T16:42:56.036Z,20.9
2023-05-14T16:44:09.004Z,20.9
2023-05-14T16:45:21.944Z,20.9
2023-05-14T16:46:35.135Z,20.9
2023-05-14T16:47:48.241Z,20.9
2023-05-14T16:49:01.159Z,20.9
2023-05-14T16:50:14.072Z,20.8
2023-05-14T16:51:27.532Z,20.7
2023-05-14T16:52:40.001Z,20.7
2023-05-14T16:53:54.780Z,20.7
2023-05-14T16:55:06.000Z,20.7
2023-05-14T16:56:19.015Z,20.7
2023-05-14T16:57:32.097Z,20.7
2023-05-14T16:58:44.703Z,20.8
2023-05-14T16:59:58.008Z,20.8
2023-05-14T17:01:10.859Z,20.8
2023-05-14T17:02:24.215Z,20.8
2023-05-14T17:03:37.086Z,20.8
2023-05-14T17:04:49.858Z,20.8
2023-05-14T17:06:03.362Z,20.8
2023-05-14T17:07:16.083Z,20.8
2023-05-14T17:08:28.676Z,20.8
2023-05-14T17:09:42.068Z,20.8
2023-05-14T17:10:54.983Z,20.8
2023-05-14T17:12:07.995Z,20.8
2023-05-14T17:13:21.082Z,20.8
2023-05-14T17:14:33.996Z,20.8
2023-05-14T17:15:47.058Z,20.8
2023-05-14T17:17:00.096Z,20.8
2023-05-14T17:18:13.061Z,20.8
2023-05-14T17:19:26.032Z,20.8
2023-05-14T17:20:40.055Z,20.8
2023-05-14T17:21:51.669Z,20.8
2023-05-14T17:23:05.002Z,20.8
2023-05-14T17:24:18.126Z,20.8
2023-05-14T17:26:44.372Z,20.8
2023-05-14T17:27:57.651Z,20.8
2023-05-14T17:29:10.020Z,20.8
2023-05-14T17:30:23.016Z,20.8
2023-05-14T17:31:35.978Z,20.8
2023-05-14T17:32:50.998Z,20.8
2023-05-14T17:34:01.868Z,20.6
2023-05-14T17:35:15.105Z,20.6
2023-05-14T17:36:28.005Z,20.6
2023-05-14T17:37:41.375Z,20.6
2023-05-14T17:38:54.120Z,20.6
2023-05-14T17:40:07.283Z,20.6
2023-05-14T17:41:19.836Z,20.6
2023-05-14T17:42:32.675Z,20.6
2023-05-14T17:43:45.837Z,20.6
2023-05-14T17:44:58.857Z,20.4
2023-05-14T17:46:12.223Z,20.4
2023-05-14T17:47:24.997Z,20.4
2023-05-14T17:48:37.975Z,20.4
2023-05-14T17:49:51.246Z,20.4
2023-05-14T17:51:03.929Z,20.4
2023-05-14T17:52:16.902Z,20.4
2023-05-14T17:53:29.975Z,20.3
2023-05-14T17:54:42.921Z,20.3
2023-05-14T17:55:55.670Z,20.3
2023-05-14T17:57:09.527Z,20.3
2023-05-14T17:59:35.228Z,20.1
2023-05-14T18:00:48.082Z,20.1
2023-05-14T18:02:01.187Z,20.1
2023-05-14T18:03:14.091Z,20.1
2023-05-14T18:06:53.072Z,19.9
2023-05-14T18:08:05.990Z,19.9
2023-05-14T18:09:18.968Z,19.9
2023-05-14T18:10:31.773Z,19.9
2023-05-14T18:12:57.919Z,19.7
2023-05-14T18:14:11.000Z,19.7
2023-05-14T18:15:23.862Z,19.6
2023-05-14T18:16:36.933Z,19.6
2023-05-14T18:17:49.711Z,19.6
2023-05-14T18:19:02.814Z,19.5
2023-05-14T18:20:15.871Z,19.4
2023-05-14T18:21:29.016Z,19.4
2023-05-14T18:22:41.922Z,19.3
2023-05-14T18:23:55.019Z,19.3
2023-05-14T18:25:07.917Z,19.3
2023-05-14T18:27:34.301Z,19.1
2023-05-14T18:28:47.220Z,18.9
2023-05-14T18:31:12.869Z,18.9
2023-05-14T18:32:26.038Z,18.7
2023-05-14T18:33:39.678Z,18.6
2023-05-14T18:39:44.447Z,17.2
2023-05-14T18:40:57.716Z,16.8
2023-05-14T19:25:58.724Z,13.9
2023-05-14T19:27:11.194Z,13.8
2023-05-14T19:32:02.905Z,13.6
2023-05-14T19:33:16.036Z,13.7
2023-05-14T19:34:29.123Z,13.7
2023-05-14T19:35:42.701Z,13.6
2023-05-14T19:36:55.015Z,13.5
2023-05-14T19:38:08.036Z,13.5
2023-05-14T19:39:21.019Z,13.5
2023-05-14T19:40:33.972Z,13.5
2023-05-14T19:41:47.092Z,13.5
2023-05-14T19:43:00.350Z,13.5
2023-05-14T19:44:13.003Z,13.3
2023-05-14T19:45:26.231Z,13.3
2023-05-14T19:46:38.972Z,13.3
2023-05-14T19:47:52.013Z,13.4
2023-05-14T19:49:05.003Z,13.4
2023-05-14T19:50:18.082Z,13.2
2023-05-14T19:51:31.108Z,13.2
2023-05-14T19:52:43.877Z,13.2
2023-05-14T19:53:57.172Z,13.2
2023-05-14T19:55:10.016Z,13.2
2023-05-14T19:56:24.285Z,13.2
2023-05-14T19:57:36.202Z,13.2
2023-05-14T19:58:49.012Z,13.2
2023-05-14T20:00:01.978Z,13.3
2023-05-14T20:01:15.044Z,13.4
2023-05-14T20:02:27.882Z,13.4
2023-05-14T20:03:41.020Z,13.4
2023-05-14T20:04:54.137Z,13.4
2023-05-14T20:06:06.881Z,13.4
2023-05-14T20:07:19.848Z,13.4
2023-05-14T20:08:32.934Z,13.4
2023-05-14T20:09:46.161Z,13.4
2023-05-14T20:10:58.978Z,13.4
2023-05-14T20:12:12.080Z,13.4
2023-05-14T20:13:25.322Z,13.3
2023-05-14T20:14:38.332Z,13.2
2023-05-14T20:15:51.006Z,13.2
2023-05-14T20:17:04.003Z,13.2
2023-05-14T20:18:17.006Z,13.2
2023-05-14T20:19:30.000Z,13.2
2023-05-14T20:20:42.989Z,13.2
2023-05-14T20:21:55.825Z,13.2
2023-05-14T20:23:08.971Z,13.2
2023-05-14T20:24:21.991Z,13.2
2023-05-14T20:25:34.975Z,13.2
2023-05-14T20:26:48.006Z,13.1
2023-05-14T20:28:00.964Z,13.1
2023-05-14T20:29:14.094Z,13.1
2023-05-14T20:31:39.969Z,13.1
2023-05-14T20:32:53.168Z,13.1
2023-05-14T20:34:05.824Z,13.1
2023-05-14T20:35:18.978Z,13.1
2023-05-14T20:36:31.811Z,13.1
2023-05-14T20:37:45.034Z,13.1
2023-05-14T20:38:58.299Z,12.9
2023-05-14T20:40:10.901Z,12.9
2023-05-14T20:42:36.879Z,13
2023-05-14T20:43:50.320Z,13
2023-05-14T20:45:02.933Z,13
2023-05-14T20:46:16.018Z,13
2023-05-14T20:47:28.839Z,13
2023-05-14T20:48:41.910Z,13
2023-05-14T20:49:55.048Z,13
2023-05-14T20:51:07.766Z,13
2023-05-14T20:52:20.875Z,13
2023-05-14T20:53:33.607Z,12.9
2023-05-14T20:54:46.906Z,13
2023-05-14T20:56:00.044Z,13
2023-05-14T20:57:12.584Z,13
2023-05-14T20:58:25.882Z,13
2023-05-14T20:59:38.746Z,12.8
2023-05-14T21:00:51.919Z,12.8
2023-05-14T21:02:05.285Z,12.8
2023-05-14T21:03:18.371Z,12.8
2023-05-14T21:04:31.022Z,12.8
2023-05-14T21:05:43.909Z,12.8
2023-05-14T21:06:56.942Z,12.8
2023-05-14T21:08:10.314Z,12.8
2023-05-14T21:09:23.253Z,12.8
2023-05-14T21:10:35.885Z,12.8
2023-05-14T21:11:48.838Z,12.7
2023-05-14T21:13:02.001Z,12.7
2023-05-14T21:14:14.871Z,12.7
2023-05-14T21:15:27.909Z,12.7
2023-05-14T21:16:41.305Z,12.7
2023-05-14T21:17:53.831Z,12.7
2023-05-14T21:19:06.791Z,12.7
2023-05-14T21:20:19.763Z,12.7
2023-05-14T21:21:32.741Z,12.7
2023-05-14T21:22:45.874Z,12.7
2023-05-14T21:23:58.906Z,12.6
2023-05-14T21:25:11.885Z,12.6
2023-05-14T21:26:25.087Z,12.6
2023-05-14T21:27:37.924Z,12.6
2023-05-14T21:28:50.900Z,12.6
2023-05-14T21:30:03.861Z,12.6
2023-05-14T21:31:16.859Z,12.4
2023-05-14T21:32:30.074Z,12.4
2023-05-14T21:33:42.899Z,12.4
2023-05-14T21:34:55.896Z,12.4
2023-05-14T21:36:08.894Z,12.4
2023-05-14T21:37:22.040Z,12.4
2023-05-14T21:38:34.875Z,12.4
2023-05-14T21:39:47.977Z,12.4
2023-05-14T21:41:00.869Z,12.4
2023-05-14T21:42:13.978Z,12.4
2023-05-14T21:43:26.878Z,12.4
2023-05-14T21:44:39.858Z,12.3
2023-05-14T21:45:52.830Z,12.3
2023-05-14T21:47:05.866Z,12.3
2023-05-14T21:48:18.904Z,12.3